Henry, Nebraska
Current Conditions -  °F | °C
As of 1:53 AM on Sunday 23 Nov 2014 (Local Time) from KTOR Reporting Station
Overcast Overcast  
Wind Chill: 36°   Ceiling: 6500
Heat Index: 36°   Visibility: 10mi
Dew Point: 26°   Wind: 3mph
Humidity: 67%   Direction: 280°W
Pressure: 29.66"   Gusts: NA
Location:  42°N, 104.05°W
Report Text: KTOR 230853Z AUTO 28003KT 10SM OVC065 02/M03 A2966 RMK AO2 SLP033 T00221033 51034
Loading
Personal Weather Stations






























Interactive Weather Map New forecast layout! Learn more

10-Day Weather Forecast

Advertisements
Track Severe Weather on mobile